Weather observations for the past three days for
Dublin, W H 'Bud' Barron Airport
Metric (Imperial)
Date Time (edt) Wind (kph) Vis. (km) Weather Sky Cond. Temperature (ºC) Relative Humidity Wind Chill (°C) Heat Index (°C) Pressure Precipitation (cm)
Air Dwpt 6 hour altimeter (cm) sea level (mb) 1 hr 3 hr 6 hr
Max. Min.
10 09:15 Calm 16.09 Overcast OVC003 18.8 18.8 100% 76.33 0.0
10 08:55 Calm 2.41 Fog/Mist OVC002 18.1 18.1 100% 76.3 0.0
10 08:35 Calm 1.61 Fog/Mist VV002 17.9 17.9 100% 76.3 0.0
10 08:15 Calm 1.21 Fog/Mist CLR 17.9 17.9 100% 76.3 0.0
10 07:55 Calm 1.21 Fog/Mist CLR 17.4 17.4 17.6 16.6 100% 76.28 0.0
10 07:35 Calm 1.21 Fog/Mist VV002 17.4 17.4 100% 76.25 0.0
10 07:15 Calm 0.40 Fog VV002 17.4 17.4 100% 76.23 0.0
10 06:55 Calm 0.40 Fog VV002 17.4 17.4 100% 76.2 0.0
10 06:35 Calm 1.21 Fog/Mist VV002 17.4 17.4 100% 76.2 0.0
10 06:15 Calm 1.21 Fog/Mist CLR 17.3 17.3 100% 76.17 0.0
10 05:55 Calm 4.83 Fog/Mist CLR 17.3 17.3 100% 76.15 0.0
10 05:35 Calm 9.66 Fog/Mist SCT002 17.6 17.6 100% 76.15 0.0
10 05:15 Calm 12.87 Overcast OVC002 17.5 17.5 100% 76.15 0.0
10 04:55 Calm 4.02 Fog/Mist SCT002 17.4 17.4 100% 76.15 0.0
10 04:35 S 6 9.66 Fog/Mist CLR 17.3 17.3 100% 76.12 0.0
10 04:15 Calm 16.09 A Few Clouds FEW160 17.2 17.2 100% 76.12 0.0
10 03:55 Calm 16.09 Mostly Cloudy BKN180 17.2 17.2 100% 76.1 0.0
10 03:35 Calm 16.09 Partly Cloudy SCT190 16.8 16.8 100% 76.05 0.0
10 03:15 Calm 14.48 Fair CLR 16.9 16.9 100% 76.05 0.0
10 02:55 Calm 12.87 Fair CLR 16.7 16.7 100% 76.05 0.0
10 02:35 Calm 12.87 Fair CLR 16.7 16.7 100% 76.05 0.0
10 02:15 Calm 16.09 A Few Clouds FEW170 16.9 16.9 100% 76.05 0.0
10 01:55 Calm 12.87 A Few Clouds FEW170 16.8 16.8 19.8 16.8 100% 76.07 0.0
10 01:35 Calm 16.09 Fair CLR 17.1 17.1 100% 76.07 0.0
10 01:15 Calm 12.87 A Few Clouds FEW170 17.2 17.2 100% 76.1 0.0
10 00:55 Calm 12.87 Fair CLR 17.8 17.8 100% 76.12 0.0
10 00:35 Calm 12.87 A Few Clouds FEW200 17.9 17.9 100% 76.12 0.0
10 00:15 Calm 11.27 Mostly Cloudy BKN210 18 18 100% 76.12 0.0
09 23:55 Calm 12.87 A Few Clouds FEW220 18 18 100% 76.12 0.0
09 23:35 Calm 11.27 Fair CLR 17.9 17.9 100% 76.12 0.0
09 23:15 Calm 11.27 Fair CLR 17.4 17.4 100% 76.1 0.0
09 22:55 Calm 12.87 Fair CLR 18 18 100% 76.1 0.0
09 22:35 Calm 12.87 Fair CLR 18.2 18.2 100% 76.1 0.0
09 22:15 Calm 12.87 Fair CLR 18.1 18.1 100% 76.07 0.0
09 21:55 Calm 11.27 Fair CLR 18.6 18.6 100% 76.07 0.0
09 21:35 Calm 12.87 Fair CLR 18.6 18.6 100% 76.07 0.0
09 21:15 Calm 14.48 Fair CLR 18.5 18.5 100% 76.05 0.0
09 20:55 Calm 16.09 Partly Cloudy SCT110 18.1 18.1 100% 76.02 0.0
09 20:35 Calm 16.09 Mostly Cloudy BKN110 19.2 19.2 100% 76.02 0.0
09 20:15 Calm 16.09 Fair CLR 19.5 19.5 100% 76 0.0
09 19:55 Calm 16.09 Fair CLR 20.1 19.5 21.9 20.1 96% 75.97 0.0
09 19:35 Calm 16.09 Fair CLR 20.6 19.6 94% 75.97 0.0
09 19:15 Vrbl 6 16.09 A Few Clouds FEW220 20.8 19.9 95% 75.97 0.0
09 18:55 Calm 16.09 A Few Clouds FEW220 20.9 19.6 92% 75.97 0.0
09 18:35 SW 9 16.09 A Few Clouds FEW220 21.1 19.7 92% 75.95 0.0
09 18:15 Vrbl 9 16.09 Mostly Cloudy BKN210 21.2 19.5 90% 75.92 0.0
09 17:55 SW 6 16.09 Partly Cloudy FEW026 SCT210 21.4 19.8 91% 75.92 0.0
09 17:35 Vrbl 9 14.48 Fair CLR 21.5 19.8 90% 75.95 0.0
09 17:15 Calm 16.09 Fair CLR 21.6 20.1 91% 75.92 0.0
09 16:55 SW 9 16.09 Fair CLR 21.3 20 92% 75.95 0.0
09 16:35 Vrbl 6 16.09 Fair CLR 21.6 19.9 90% 75.95 0.0
09 16:15 Vrbl 6 16.09 Fair CLR 21.6 20.5 94% 75.97 0.0
09 15:55 Vrbl 9 16.09 Fair CLR 21.9 20.7 93% 76 0.0
09 15:35 Vrbl 6 16.09 Fair CLR 21.7 21 96% 75.97 0.0
09 15:15 Calm 16.09 A Few Clouds FEW019 21.1 20.7 98% 76 0.0
09 14:55 S 6 16.09 Mostly Cloudy SCT015 SCT020 BKN026 20.5 20.2 98% 76.02 0.0
09 14:35 Vrbl 6 16.09 Overcast BKN015 OVC023 20.6 20.2 98% 76.05 0.0
09 14:15 Vrbl 7 16.09 Overcast SCT013 BKN019 OVC140 20.7 20.5 99% 76.05 0.0
09 13:55 S 9 16.09 Mostly Cloudy SCT013 BKN160 20.7 20.6 21 16.1 99% 76.05 0.0
09 13:35 S 7 16.09 Mostly Cloudy SCT012 BKN017 BKN160 20.9 20.7 99% 76.05 0.0
09 13:15 Calm 16.09 Mostly Cloudy SCT012 SCT018 BKN025 BKN160 20.8 20.6 99% 76.05 0.0
09 12:55 Vrbl 11 14.48 Partly Cloudy SCT009 SCT014 20.3 20.3 100% 76.07 0.0
09 12:35 S 9 16.09 Fair CLR 20.6 20.6 100% 76 0.0
09 12:15 Calm 16.09 Fair CLR 20.3 20.3 100% 75.97 0.0
09 11:55 SW 7 16.09 Fair CLR 19.6 19.6 100% 76.02 0.0
09 11:35 Calm 16.09 Fair CLR 19.1 19.1 100% 76.05 0.0
09 11:15 Vrbl 7 16.09 Fair CLR 18.8 18.8 100% 76.05 0.0
09 10:55 Vrbl 9 12.87 Fair CLR 18.5 18.5 100% 76.07 0.0
09 10:35 NW 6 8.05 Light Rain Fog/Mist FEW100 18.1 18.1 100% 76.05 0.0
09 10:15 SW 6 4.02 Light Rain Fog/Mist FEW095 SCT110 17.8 17.8 100% 76.02 0.0
09 09:55 Vrbl 6 4.02 Light Rain Fog/Mist FEW060 17.6 17.6 100% 76.05 0.0
09 09:35 Vrbl 7 11.27 Light Rain FEW046 SCT065 18.4 18.1 98% 76.1 0.0
09 09:15 SW 9 16.09 Mostly Cloudy SCT046 BKN070 18.5 18 97% 76.07 0.0
09 08:55 Calm 16.09 Partly Cloudy SCT190 SCT210 18.7 18.4 98% 76.05 0.0
09 08:35 S 6 16.09 A Few Clouds FEW180 17 17 100% 76.05 0.0
09 08:15 Calm 16.09 Partly Cloudy FEW080 SCT180 16.1 16.1 100% 76.05 0.0
09 07:55 Calm 14.48 Fair CLR 15.9 15.9 15.9 13 100% 76.05 0.0
09 07:35 Calm 16.09 Fair CLR 15.4 15.4 100% 76.05 0.0
09 07:15 Calm 12.87 A Few Clouds FEW070 14.7 14.7 100% 76 0.0
09 06:55 Calm 11.27 Mostly Cloudy SCT070 BKN090 14.1 14.1 100% 76.02 0.0
09 06:35 Calm 9.66 Fog/Mist SCT085 13.6 13.6 100% 76 0.0
09 06:15 Calm 14.48 Fair CLR 13.4 13.4 100% 75.95 0.0
09 05:55 Calm 9.66 Fog/Mist CLR 13 13 100% 75.97 0.0
09 05:35 Calm 11.27 Fair CLR 13.2 13.2 100% 75.97 0.0
09 05:15 Calm 11.27 Fair CLR 13.8 13.8 100% 75.95 0.0
09 04:55 Calm 8.05 Fog/Mist CLR 13.5 13.5 100% 75.92 0.0
09 04:35 Calm 11.27 Fair CLR 13.4 13.4 100% 75.92 0.0
09 04:15 Calm 4.83 Fog/Mist CLR 13.5 13.5 100% 75.95 0.0
09 03:55 Calm 14.48 Fair CLR 14.2 14.2 100% 75.95 0.0
09 03:35 Calm 16.09 Fair CLR 14.8 14.8 100% 75.95 0.0
09 03:15 Calm 16.09 Fair CLR 14.8 14.8 100% 75.92 0.0
09 02:55 Calm 16.09 Fair CLR 15.6 15.6 100% 75.95 0.0
09 02:35 Calm 16.09 A Few Clouds FEW110 15.7 15.7 100% 76 0.0
09 02:15 Calm 16.09 Fair CLR 15.6 15.6 100% 76.02 0.0
09 01:55 Calm 14.48 Fair CLR 16.2 16.2 18.6 16.1 100% 76.05 0.0
09 01:35 Calm 14.48 Fair CLR 16.2 16.2 100% 76.02 0.0
09 01:15 Calm 16.09 Fair CLR 16.9 16.7 99% 76.1 0.0
09 00:55 Calm 16.09 Fair CLR 16.9 16.9 100% 76.1 0.0
09 00:35 Calm 16.09 Fair CLR 16.8 16.8 100% 76.05 0.0
09 00:15 Calm 16.09 A Few Clouds FEW190 16.7 16.7 100% 76.1 0.0
08 23:55 Calm 16.09 Partly Cloudy SCT190 17.4 17.4 100% 76.12 0.0
08 23:35 Calm 16.09 A Few Clouds FEW190 17.6 17.6 100% 76.12 0.0
08 23:15 Calm 14.48 Fair CLR 17.8 17.8 100% 76.12 0.0
08 22:55 Vrbl 7 12.87 Fair CLR 17.5 17.5 100% 76.12 0.0
08 22:35 S 7 12.87 Fair CLR 17.5 17.5 100% 76.12 0.0
08 22:15 Calm 9.66 Fog/Mist CLR 17.4 17.4 100% 76.1 0.0
08 21:55 Calm 8.05 Light Rain Fog/Mist BKN110 17.7 17.7 100% 76.12 0.0
08 21:35 Calm 9.66 Fog/Mist BKN110 17.8 17.8 100% 76.12 0.0
08 21:15 Calm 9.66 Light Rain Fog/Mist BKN120 17.7 17.7 100% 76.15 0.0
08 20:55 Calm 8.05 Light Rain Fog/Mist FEW110 17.8 17.8 100% 76.15 0.0
08 20:35 Calm 11.27 Light Rain BKN110 18 18 100% 76.2 0.0
08 20:15 W 6 11.27 Light Rain SCT100 BKN120 18.4 18.4 100% 76.17 0.0
08 19:55 Calm 11.27 Light Rain OVC120 18.6 18.6 22.7 18.5 100% 76.07 0.0
08 19:35 Calm 12.87 Mostly Cloudy BKN120 19 19 100% 76.1 0.0
08 19:15 Calm 12.87 Fair CLR 19.6 18.7 95% 76.1 0.0
08 18:55 Calm 14.48 Mostly Cloudy SCT130 BKN150 19.8 19 95% 76.07 0.0
08 18:35 Calm 12.87 Overcast BKN120 OVC150 20.3 17.8 86% 76.07 0.0
08 18:15 Calm 12.87 Overcast SCT120 BKN140 OVC160 20.9 17.7 82% 76.07 0.0
08 17:55 Calm 8.05 Mostly Cloudy with Haze SCT130 BKN160 21.4 16.4 73% 76.1 0.0
08 17:35 Calm 9.66 Mostly Cloudy with Haze SCT130 BKN170 21.4 14.8 66% 76.07 0.0
08 17:15 Calm 8.05 Partly Cloudy with Haze FEW140 SCT160 SCT190 SCT370 21.5 15 67% 76.07 0.0
08 16:55 SE 6 9.66 Partly Cloudy with Haze FEW130 SCT160 21.5 13.7 61% 76.12 0.0
08 16:35 S 6 11.27 Mostly Cloudy BKN130 BKN160 21.4 13.9 62% 76.1 0.0
08 16:15 SE 7 9.66 Overcast with Haze OVC140 21.4 13.8 62% 76.12 0.0
08 15:55 E 9 12.87 Overcast OVC140 21.8 12.3 55% 76.12 0.0
08 15:35 E 7 11.27 Overcast BKN140 BKN160 OVC210 21.3 13.4 61% 76.15 0.0
08 15:15 Vrbl 7 12.87 Mostly Cloudy BKN150 BKN210 22.7 13.5 56% 76.17 0.0
08 14:55 E 6 12.87 Overcast OVC150 22 13.1 57% 76.23 0.0
08 14:35 Vrbl 6 14.48 Overcast OVC140 21.5 14 62% 76.23 0.0
08 14:15 Calm 14.48 Mostly Cloudy BKN130 BKN150 21 13.1 61% 76.2 0.0
08 13:55 Calm 12.87 Mostly Cloudy BKN140 21 13.5 21.8 15.5 62% 76.25 0.0
08 13:35 SE 9 12.87 A Few Clouds FEW140 20.8 13 61% 76.23 0.0
08 13:15 E 11 16.09 Fair CLR 21.6 13.1 59% 76.23 0.0
08 12:55 NE 6 16.09 Fair CLR 21.3 12.9 59% 76.28 0.0
08 12:35 Calm 16.09 Fair CLR 20.9 12.4 58% 76.3 0.0
08 12:15 NE 15 16.09 Fair CLR 21.5 12.5 57% 76.3 0.0
08 11:55 Calm 16.09 Fair CLR 21.2 12.8 59% 76.33 0.0
08 11:35 Vrbl 7 16.09 Fair CLR 20.8 13.7 64% 76.35 0.0
08 11:15 E 15 14.48 Fair CLR 19.9 13.6 67% 76.35 0.0
08 10:55 E 15 16.09 Fair CLR 20.4 14.4 69% 76.35 0.0
08 10:35 E 13 16.09 Fair CLR 19.5 14.4 73% 76.35 0.0
08 10:15 E 13 16.09 Fair CLR 18.8 14.2 75% 76.38 0.0
08 09:55 E 9 12.87 Fair CLR 17.9 14.6 81% 76.38 0.0
08 09:35 NE 9 14.48 Fair CLR 17.8 14.9 83% 76.35 0.0
08 09:15 NE 7 14.48 A Few Clouds FEW170 17.1 15.1 88% 76.35 0.0
08 08:55 N 6 16.09 A Few Clouds FEW170 16.8 15.2 90% 76.33 0.0
08 08:35 Calm 12.87 Fair CLR 16.1 15 93% 76.3 0.0
08 08:15 N 7 16.09 Fair CLR 15.8 15.2 96% 76.28 0.0
08 07:55 Calm 16.09 Partly Cloudy SCT150 15.4 15.2 16.3 13.9 99% 76.28 0.0
08 07:35 Calm 14.48 Partly Cloudy SCT150 15.2 15.2 100% 76.23 0.0
08 07:15 Calm 16.09 Fair CLR 15 15 100% 76.23 0.0
08 06:55 Calm 16.09 A Few Clouds FEW190 15 15 100% 76.17 0.0
08 06:35 Calm 16.09 Partly Cloudy SCT190 14.8 14.8 100% 76.17 0.0
08 06:15 Calm 16.09 Partly Cloudy SCT180 SCT200 14.9 14.9 100% 76.15 0.0
08 05:55 Calm 16.09 Mostly Cloudy FEW150 BKN180 14.5 14.5 100% 76.12 0.0
08 05:35 Calm 16.09 Partly Cloudy SCT150 SCT180 14.8 14.8 100% 76.12 0.0
08 05:15 Calm 14.48 A Few Clouds FEW150 14.2 14.2 100% 76.12 0.0
08 04:55 Vrbl 6 14.48 Fair CLR 15 15 100% 76.1 0.0
08 04:35 NW 6 14.48 Fair CLR 15.1 15.1 100% 76.07 0.0
08 04:15 NW 6 14.48 Partly Cloudy FEW160 SCT270 15 15 100% 76.07 0.0
08 03:55 Calm 14.48 Mostly Cloudy BKN160 15.6 15.6 100% 76.07 0.0
08 03:35 NW 6 9.66 Fog/Mist FEW160 15.1 15.1 100% 76.1 0.0
08 03:15 Calm 9.66 Fog/Mist CLR 15.8 15.8 100% 76.07 0.0
08 02:55 Calm 11.27 A Few Clouds FEW160 16 16 100% 76.07 0.0
08 02:35 Calm 9.66 Fog/Mist BKN170 15.7 15.7 100% 76.1 0.0
08 02:15 Calm 9.66 Fog/Mist SCT170 15.8 15.8 100% 76.1 0.0
08 01:55 Calm 9.66 Fog/Mist CLR 15.6 15.6 23.1 15.4 100% 76.12 0.0
08 01:35 Calm 9.66 Fog/Mist CLR 15.7 15.6 99% 76.12 0.0
08 01:15 Calm 9.66 Fog/Mist CLR 15.8 15.8 100% 76.12 0.0
08 00:55 Calm 14.48 A Few Clouds FEW280 16.3 16.3 100% 76.12 0.0
08 00:35 Calm 16.09 Partly Cloudy SCT280 16.6 16.6 100% 76.07 0.0
08 00:15 Calm 16.09 Overcast OVC280 17.9 17.6 98% 76.1 0.0
07 23:55 Calm 16.09 Fair CLR 19 17.8 93% 76.07 0.0
07 23:35 Vrbl 7 16.09 A Few Clouds FEW240 19.4 18.2 93% 76.07 0.0
07 23:15 N 13 16.09 Partly Cloudy SCT240 20.2 18.8 92% 76.07 0.0
07 22:55 Vrbl 7 16.09 Mostly Cloudy BKN280 20.8 20.6 99% 76.05 0.0
07 22:35 NW 9 16.09 Overcast FEW037 OVC280 21 21 100% 76.02 0.0
07 22:15 NW 6 16.09 Overcast BKN037 OVC270 20.9 20.9 100% 76 0.0
07 21:55 Calm 14.48 Mostly Cloudy SCT036 BKN250 BKN270 20.2 20.2 100% 75.97 0.0
07 21:35 Calm 16.09 A Few Clouds FEW270 20.2 20.2 100% 75.95 0.0
07 21:15 Calm 16.09 Partly Cloudy SCT270 21 21 100% 75.92 0.0
07 20:55 Calm 14.48 Mostly Cloudy FEW180 BKN270 21.2 21.2 100% 75.9 0.0
07 20:35 Calm 16.09 Mostly Cloudy BKN190 21.9 21.9 100% 75.9 0.0
07 20:15 Calm 16.09 Mostly Cloudy BKN190 22.4 22.4 100% 75.87 0.0
07 19:55 Calm 16.09 Mostly Cloudy BKN190 23.2 23.2 24.9 22.1 100% 75.87 0.0 0.56
07 19:35 W 6 16.09 Overcast OVC200 23.7 23.6 99% 75.84 0.0
07 19:15 Calm 16.09 Overcast OVC190 24 23.7 98% 23 75.87 0.0
07 18:55 SW 7 16.09 Overcast OVC180 24 23.4 96% 23 75.87 0.0
07 18:35 W 9 16.09 Overcast OVC190 23.9 23.2 96% 23 75.84 0.0
07 18:15 W 13 16.09 Mostly Cloudy FEW016 SCT024 BKN200 24.1 23.4 96% 23 75.84 0.0
07 17:55 W 9 16.09 Overcast FEW016 BKN023 OVC032 24.3 24 98% 24 75.84 0.0
07 17:35 Vrbl 9 16.09 Overcast FEW013 BKN021 OVC042 24 24 100% 23 75.84 0.0
07 17:15 W 7 16.09 Mostly Cloudy SCT011 BKN018 BKN038 BKN047 23.8 23.8 100% 75.84 0.0
07 16:15 W 11 16.09 Overcast FEW007 BKN014 OVC021 22.9 22.9 100% 75.84 0.0 0.03
07 15:55 Vrbl 7 9.66 Light Rain Fog/Mist BKN007 OVC013 22.1 22.1 100% 75.84 0.0 0.28
07 15:35 NW 11 8.05 Light Rain Fog/Mist SCT005 BKN011 OVC016 22.2 22.2 100% 75.84 0.0 0.25
07 15:15 Vrbl 6 8.05 Light Rain Fog/Mist SCT006 OVC016 22.4 22.4 100% 75.84 0.0 0.15
07 14:55 W 11 4.83 Light Rain Fog/Mist FEW004 OVC016 22.3 22.3 100% 75.87 0.0 0.25
07 14:35 NW 13 4.83 Light Rain Fog/Mist FEW003 BKN014 OVC021 22.6 22.6 100% 75.9 0.0 0.13
07 14:15 W 17 G 30 8.05 Light Rain Fog/Mist OVC018 22.9 22.9 100% 75.9 0.0
07 13:55 SW 17 G 37 16.09 Overcast OVC019 24 22.9 24.4 19.7 94% 23 75.84 0.0 2.36
07 12:35 SW 17 G 28 16.09 Overcast OVC019 24.2 22.8 92% 24 75.87 0.0
07 12:15 SW 13 G 28 16.09 Overcast BKN022 OVC028 23.7 22.5 93% 75.87 0.0
07 11:35 SW 15 16.09 Mostly Cloudy SCT023 SCT030 BKN050 23.2 22.8 98% 75.92 0.0 0.23
07 11:15 Vrbl 9 16.09 A Few Clouds FEW024 22.1 22.1 100% 75.95 0.0 0.23
07 10:55 Vrbl 9 16.09 Fair CLR 22.1 22.1 100% 75.9 0.0 2.01 2.13
07 10:35 S 7 16.09 Fair CLR 21.5 21.5 100% 75.9 0.0 1.5
07 10:15 S 11 16.09 Mostly Cloudy SCT027 BKN036 21.1 21.1 100% 75.9 0.0 0.76
07 09:55 Vrbl 7 14.48 Overcast BKN033 OVC043 20.8 20.8 100% 75.9 0.0 0.13
07 09:35 S 7 16.09 Mostly Cloudy FEW027 BKN034 BKN043 20.6 20.6 100% 75.92 0.0
Date Time (edt) Wind (kph) Vis. (km) Weather Sky Cond. Air Dwpt Max. Min. Relative Humidity Wind Chill (°C) Heat Index (°C) altimeter (cm) sea level (mb) 1 hr 3 hr 6 hr
6 hour
Temperature (ºC) Pressure Precipitation (cm)